createdAt,value
2023-04-02T00:00:22.523Z,7.78
2023-04-02T00:02:58.109Z,7.78
2023-04-02T00:05:55.539Z,7.75
2023-04-02T00:08:39.997Z,7.83
2023-04-02T00:11:09.324Z,7.81
2023-04-02T00:13:39.197Z,7.82
2023-04-02T00:16:10.305Z,7.83
2023-04-02T00:18:41.837Z,7.83
2023-04-02T00:21:13.430Z,7.83
2023-04-02T00:23:42.822Z,7.87
2023-04-02T00:26:23.370Z,7.87
2023-04-02T00:28:52.050Z,7.83
2023-04-02T00:31:23.041Z,7.85
2023-04-02T00:33:51.980Z,7.92
2023-04-02T00:36:23.269Z,7.92
2023-04-02T00:38:52.194Z,7.93
2023-04-02T00:41:24.049Z,7.87
2023-04-02T00:43:54.140Z,7.93
2023-04-02T00:46:27.803Z,7.85
2023-04-02T00:48:59.356Z,7.83
2023-04-02T00:51:31.171Z,7.78
2023-04-02T00:54:02.344Z,7.80
2023-04-02T00:56:33.484Z,7.74
2023-04-02T00:59:01.771Z,7.70
2023-04-02T01:01:36.827Z,7.78
2023-04-02T01:04:06.300Z,7.72
2023-04-02T01:06:37.473Z,7.73
2023-04-02T01:09:12.917Z,7.69
2023-04-02T01:11:58.710Z,7.68
2023-04-02T01:14:36.540Z,7.62
2023-04-02T01:17:16.215Z,7.63
2023-04-02T01:20:01.209Z,7.68
2023-04-02T01:22:35.701Z,7.68
2023-04-02T01:25:05.143Z,7.69
2023-04-02T01:27:37.949Z,7.74
2023-04-02T01:30:10.443Z,7.71
2023-04-02T01:32:39.147Z,7.68
2023-04-02T01:35:09.293Z,7.74
2023-04-02T01:37:45.100Z,7.73
2023-04-02T01:40:31.553Z,7.73
2023-04-02T01:43:03.979Z,7.70
2023-04-02T01:45:35.549Z,7.68
2023-04-02T01:48:07.464Z,7.69
2023-04-02T01:50:37.458Z,7.67
2023-04-02T01:53:07.636Z,7.70
2023-04-02T01:55:41.055Z,7.70
2023-04-02T01:58:11.737Z,7.76
2023-04-02T02:00:45.740Z,7.70
2023-04-02T02:03:14.919Z,7.70
2023-04-02T02:05:46.204Z,7.78
2023-04-02T02:08:23.981Z,7.74
2023-04-02T02:10:53.127Z,7.75
2023-04-02T02:13:22.638Z,7.71
2023-04-02T02:15:52.482Z,7.65
2023-04-02T02:18:23.533Z,7.65
2023-04-02T02:20:52.417Z,7.71
2023-04-02T02:23:21.195Z,7.67
2023-04-02T02:25:49.570Z,7.66
2023-04-02T02:28:19.977Z,7.67
2023-04-02T02:30:49.755Z,7.69
2023-04-02T02:33:22.711Z,7.67
2023-04-02T02:35:54.423Z,7.69
2023-04-02T02:38:44.803Z,7.71
2023-04-02T02:41:18.293Z,7.68
2023-04-02T02:43:50.718Z,7.56
2023-04-02T02:46:21.644Z,7.58
2023-04-02T02:48:52.432Z,7.54
2023-04-02T02:51:23.359Z,7.54
2023-04-02T02:53:54.980Z,7.50
2023-04-02T02:56:25.141Z,7.49
2023-04-02T02:58:56.089Z,7.48
2023-04-02T03:01:24.914Z,7.48
2023-04-02T03:03:56.945Z,7.48
2023-04-02T03:06:26.018Z,7.55
2023-04-02T03:08:59.442Z,7.53
2023-04-02T03:11:31.200Z,7.54
2023-04-02T03:14:04.933Z,7.52
2023-04-02T03:16:37.417Z,7.46
2023-04-02T03:19:11.002Z,7.47
2023-04-02T03:21:42.221Z,7.48
2023-04-02T03:24:13.815Z,7.40
2023-04-02T03:26:47.782Z,7.43
2023-04-02T03:29:18.062Z,7.35
2023-04-02T03:31:49.491Z,7.33
2023-04-02T03:34:23.980Z,7.31
2023-04-02T03:36:54.353Z,7.24
2023-04-02T03:39:25.855Z,7.21
2023-04-02T03:41:57.820Z,7.22
2023-04-02T03:44:29.691Z,7.22
2023-04-02T03:46:59.865Z,7.24
2023-04-02T03:49:32.978Z,7.22
2023-04-02T03:52:04.368Z,7.25
2023-04-02T03:54:32.748Z,7.23
2023-04-02T03:57:00.766Z,7.22
2023-04-02T03:59:34.846Z,7.24
2023-04-02T04:02:09.366Z,7.24
2023-04-02T04:04:41.524Z,7.24
2023-04-02T04:07:12.904Z,7.23
2023-04-02T04:09:43.975Z,7.23
2023-04-02T04:12:16.189Z,7.21
2023-04-02T04:14:46.564Z,7.24
2023-04-02T04:17:17.819Z,7.25
2023-04-02T04:19:49.674Z,7.21
2023-04-02T04:22:19.223Z,7.21
2023-04-02T04:24:48.574Z,7.20
2023-04-02T04:27:21.366Z,7.24
2023-04-02T04:29:53.735Z,7.25
2023-04-02T04:32:27.859Z,7.19
2023-04-02T04:35:01.239Z,7.24
2023-04-02T04:37:34.145Z,7.24
2023-04-02T04:40:08.084Z,7.22
2023-04-02T04:42:40.106Z,7.23
2023-04-02T04:45:13.504Z,7.21
2023-04-02T04:47:44.124Z,7.26
2023-04-02T04:50:16.263Z,7.26
2023-04-02T04:52:45.719Z,7.23
2023-04-02T04:55:27.399Z,7.24
2023-04-02T04:57:59.089Z,7.31
2023-04-02T05:00:30.052Z,7.32
2023-04-02T05:03:03.591Z,7.32
2023-04-02T05:05:35.309Z,7.35
2023-04-02T05:08:07.272Z,7.36
2023-04-02T05:10:39.283Z,7.35
2023-04-02T05:13:10.437Z,7.37
2023-04-02T05:15:42.673Z,7.34
2023-04-02T05:18:20.356Z,7.32
2023-04-02T05:20:53.907Z,7.28
2023-04-02T05:23:25.791Z,7.26
2023-04-02T05:25:56.005Z,7.24
2023-04-02T05:28:27.858Z,7.25
2023-04-02T05:30:57.804Z,7.27
2023-04-02T05:33:27.325Z,7.31
2023-04-02T05:36:00.735Z,7.29
2023-04-02T05:38:29.903Z,7.35
2023-04-02T05:41:01.538Z,7.38
2023-04-02T05:43:31.622Z,7.42
2023-04-02T05:46:02.609Z,7.32
2023-04-02T05:48:33.234Z,7.34
2023-04-02T05:51:05.010Z,7.37
2023-04-02T05:53:35.560Z,7.39
2023-04-02T05:56:08.040Z,7.34
2023-04-02T05:58:39.188Z,7.36
2023-04-02T06:01:17.994Z,7.36
2023-04-02T06:03:49.959Z,7.34
2023-04-02T06:06:24.171Z,7.37
2023-04-02T06:08:57.157Z,7.40
2023-04-02T06:11:27.061Z,7.42
2023-04-02T06:13:55.170Z,7.49
2023-04-02T06:16:26.213Z,7.46
2023-04-02T06:18:54.434Z,7.50
2023-04-02T06:21:24.068Z,7.47
2023-04-02T06:23:54.944Z,7.42
2023-04-02T06:26:26.644Z,7.42
2023-04-02T06:28:57.817Z,7.47
2023-04-02T06:31:29.549Z,7.56
2023-04-02T06:33:57.974Z,7.53
2023-04-02T06:36:28.927Z,7.52
2023-04-02T06:38:59.029Z,7.60
2023-04-02T06:41:27.428Z,7.59
2023-04-02T06:43:57.230Z,7.68
2023-04-02T06:46:29.471Z,7.77
2023-04-02T06:49:01.164Z,7.72
2023-04-02T06:51:32.969Z,7.75
2023-04-02T06:54:01.629Z,7.67
2023-04-02T06:56:38.246Z,7.67
2023-04-02T06:59:07.810Z,7.55
2023-04-02T07:01:39.154Z,7.57
2023-04-02T07:04:07.637Z,7.48
2023-04-02T07:06:37.233Z,7.45
2023-04-02T07:09:06.875Z,7.46
2023-04-02T07:11:35.149Z,7.40
2023-04-02T07:14:03.118Z,7.46
2023-04-02T07:16:32.202Z,7.43
2023-04-02T07:19:00.121Z,7.39
2023-04-02T07:21:28.685Z,7.28
2023-04-02T07:23:58.809Z,7.27
2023-04-02T07:26:28.667Z,7.28
2023-04-02T07:28:57.968Z,7.24
2023-04-02T07:31:27.263Z,7.29
2023-04-02T07:33:58.114Z,7.36
2023-04-02T07:36:26.582Z,7.28
2023-04-02T07:38:55.035Z,7.28
2023-04-02T07:41:24.662Z,7.31
2023-04-02T07:43:52.654Z,7.37
2023-04-02T07:46:20.991Z,7.46
2023-04-02T07:48:49.082Z,7.45
2023-04-02T07:51:18.636Z,7.44
2023-04-02T07:53:50.552Z,7.31
2023-04-02T07:56:19.814Z,7.26
2023-04-02T07:58:49.539Z,7.32
2023-04-02T08:01:19.601Z,7.31
2023-04-02T08:03:48.154Z,7.32
2023-04-02T08:06:16.323Z,7.32
2023-04-02T08:08:44.276Z,7.28
2023-04-02T08:11:13.100Z,7.38
2023-04-02T08:13:42.016Z,7.37
2023-04-02T08:16:12.401Z,7.33
2023-04-02T08:18:40.940Z,7.38
2023-04-02T08:21:09.952Z,7.31
2023-04-02T08:23:39.065Z,7.25
2023-04-02T08:26:08.374Z,6.97
2023-04-02T08:28:36.702Z,6.66
2023-04-02T08:31:05.569Z,6.63
2023-04-02T08:33:35.008Z,6.47
2023-04-02T08:36:04.117Z,6.31
2023-04-02T08:38:32.109Z,6.20
2023-04-02T08:41:01.865Z,6.14
2023-04-02T08:43:37.608Z,6.18
2023-04-02T08:46:12.801Z,6.24
2023-04-02T08:48:44.759Z,6.29
2023-04-02T08:51:21.452Z,6.35
2023-04-02T08:53:50.461Z,6.39
2023-04-02T08:56:20.409Z,6.34
2023-04-02T08:58:50.054Z,6.32
2023-04-02T09:01:22.846Z,6.30
2023-04-02T09:03:56.000Z,6.26
2023-04-02T09:06:24.448Z,6.12
2023-04-02T09:08:53.193Z,6.16
2023-04-02T09:11:24.615Z,6.22
2023-04-02T09:13:55.645Z,6.16
2023-04-02T09:16:28.121Z,6.21
2023-04-02T09:18:58.061Z,6.19
2023-04-02T09:21:35.049Z,6.26
2023-04-02T09:24:04.724Z,6.30
2023-04-02T09:26:34.261Z,6.33
2023-04-02T09:29:04.041Z,6.52
2023-04-02T09:31:35.771Z,6.45
2023-04-02T09:34:26.358Z,6.35
2023-04-02T09:36:54.374Z,6.33
2023-04-02T09:39:24.365Z,6.36
2023-04-02T09:42:02.713Z,6.58
2023-04-02T09:44:33.360Z,6.38
2023-04-02T09:47:04.131Z,6.28
2023-04-02T09:49:35.358Z,6.05
2023-04-02T09:52:17.940Z,6.01
2023-04-02T09:54:46.304Z,6.07
2023-04-02T09:57:24.235Z,6.05
2023-04-02T10:00:25.319Z,5.93
2023-04-02T10:03:04.581Z,6.00
2023-04-02T10:08:11.236Z,5.89
2023-04-02T10:10:42.689Z,6.02
2023-04-02T10:13:19.389Z,6.02
2023-04-02T10:15:50.948Z,6.11
2023-04-02T10:18:23.865Z,6.02
2023-04-02T10:20:54.795Z,5.93
2023-04-02T10:23:26.247Z,5.98
2023-04-02T10:25:56.304Z,5.89
2023-04-02T10:28:32.637Z,5.82
2023-04-02T10:31:04.977Z,5.95
2023-04-02T10:33:37.100Z,6.12
2023-04-02T10:36:10.529Z,6.04
2023-04-02T10:38:43.071Z,5.97
2023-04-02T10:41:26.971Z,6.01
2023-04-02T10:44:16.797Z,5.81
2023-04-02T10:46:51.393Z,5.82
2023-04-02T10:49:24.547Z,5.78
2023-04-02T10:51:57.485Z,5.85
2023-04-02T10:54:39.112Z,5.96
2023-04-02T10:57:10.875Z,6.12
2023-04-02T10:59:42.023Z,6.16
2023-04-02T11:02:27.564Z,6.04
2023-04-02T11:04:59.881Z,6.08
2023-04-02T11:07:33.928Z,6.13
2023-04-02T11:10:02.372Z,6.32
2023-04-02T11:12:41.769Z,6.21
2023-04-02T11:15:16.519Z,6.21
2023-04-02T11:17:45.105Z,6.06
2023-04-02T11:20:31.843Z,6.12
2023-04-02T11:23:11.508Z,6.11
2023-04-02T11:25:39.731Z,6.07
2023-04-02T11:28:15.754Z,6.00
2023-04-02T11:30:44.209Z,6.19
2023-04-02T11:33:36.644Z,6.28
2023-04-02T11:36:27.148Z,6.00
2023-04-02T11:39:01.892Z,5.85
2023-04-02T11:41:54.478Z,5.96
2023-04-02T11:44:26.284Z,5.96
2023-04-02T11:46:55.165Z,6.19
2023-04-02T11:49:40.091Z,6.10
2023-04-02T11:52:35.745Z,6.08
2023-04-02T11:55:22.495Z,6.11
2023-04-02T11:58:09.197Z,6.09
2023-04-02T12:00:57.529Z,6.11
2023-04-02T12:03:35.271Z,6.35
2023-04-02T12:06:07.706Z,6.24
2023-04-02T12:08:47.449Z,6.17
2023-04-02T12:11:32.188Z,6.08
2023-04-02T12:14:01.144Z,5.99
2023-04-02T12:16:34.614Z,6.03
2023-04-02T12:19:02.670Z,6.03
2023-04-02T12:21:30.809Z,5.77
2023-04-02T12:24:00.265Z,5.77
2023-04-02T12:26:38.663Z,5.78
2023-04-02T12:29:16.651Z,5.78
2023-04-02T12:31:47.724Z,5.69
2023-04-02T12:34:16.546Z,5.59
2023-04-02T12:36:52.847Z,5.57
2023-04-02T12:39:20.933Z,5.50
2023-04-02T12:41:49.329Z,5.64
2023-04-02T12:44:18.745Z,5.79
2023-04-02T12:46:49.204Z,5.80
2023-04-02T12:49:22.831Z,5.74
2023-04-02T12:51:52.085Z,5.67
2023-04-02T12:54:20.906Z,5.62
2023-04-02T12:56:49.491Z,5.71
2023-04-02T12:59:31.660Z,5.75
2023-04-02T13:02:02.512Z,5.78
2023-04-02T13:04:31.440Z,5.82
2023-04-02T13:06:59.913Z,5.90
2023-04-02T13:09:31.084Z,5.92
2023-04-02T13:11:59.558Z,5.84
2023-04-02T13:14:28.276Z,5.76
2023-04-02T13:16:56.335Z,5.84
2023-04-02T13:19:28.365Z,5.87
2023-04-02T13:21:57.553Z,5.84
2023-04-02T13:24:26.615Z,5.94
2023-04-02T13:26:55.890Z,5.73
2023-04-02T13:29:29.712Z,5.85
2023-04-02T13:31:58.610Z,5.92
2023-04-02T13:34:36.285Z,5.75
2023-04-02T13:37:04.229Z,5.85
2023-04-02T13:39:32.229Z,5.94
2023-04-02T13:42:03.568Z,5.86
2023-04-02T13:44:33.416Z,6.01
2023-04-02T13:47:02.090Z,5.85
2023-04-02T13:49:32.618Z,5.66
2023-04-02T13:52:03.407Z,5.71
2023-04-02T13:54:35.093Z,5.47
2023-04-02T13:57:03.320Z,5.32
2023-04-02T13:59:32.518Z,5.38
2023-04-02T14:02:04.129Z,5.42
2023-04-02T14:04:34.918Z,5.45
2023-04-02T14:07:13.602Z,5.31
2023-04-02T14:09:50.544Z,5.21
2023-04-02T14:12:24.146Z,5.25
2023-04-02T14:14:58.057Z,5.06
2023-04-02T14:17:30.663Z,5.06
2023-04-02T14:20:12.687Z,5.14
2023-04-02T14:22:50.267Z,4.95
2023-04-02T14:25:22.640Z,5.02
2023-04-02T14:27:54.799Z,4.93
2023-04-02T14:30:28.063Z,4.85
2023-04-02T14:32:59.518Z,4.93
2023-04-02T14:35:32.437Z,4.89
2023-04-02T14:38:07.163Z,4.82
2023-04-02T14:40:38.485Z,4.69
2023-04-02T14:43:09.378Z,4.69
2023-04-02T14:45:46.155Z,4.57
2023-04-02T14:48:21.478Z,4.44
2023-04-02T14:50:53.334Z,4.52
2023-04-02T14:53:24.625Z,4.54
2023-04-02T14:55:54.655Z,4.46
2023-04-02T14:58:24.881Z,4.47
2023-04-02T15:00:56.164Z,4.44
2023-04-02T15:03:25.364Z,4.53
2023-04-02T15:05:57.017Z,4.60
2023-04-02T15:08:28.385Z,4.55
2023-04-02T15:11:03.578Z,4.38
2023-04-02T15:13:36.822Z,4.37
2023-04-02T15:16:11.622Z,4.57
2023-04-02T15:18:40.187Z,4.64
2023-04-02T15:21:26.006Z,4.62
2023-04-02T15:23:57.780Z,4.59
2023-04-02T15:26:32.906Z,4.61
2023-04-02T15:29:07.573Z,4.61
2023-04-02T15:31:37.508Z,4.63
2023-04-02T15:34:18.475Z,4.66
2023-04-02T15:36:56.857Z,4.49
2023-04-02T15:39:32.102Z,4.48
2023-04-02T15:42:06.290Z,4.52
2023-04-02T15:44:35.648Z,4.51
2023-04-02T15:47:09.379Z,4.45
2023-04-02T15:49:43.609Z,4.27
2023-04-02T15:52:17.628Z,4.15
2023-04-02T15:54:57.850Z,4.12
2023-04-02T15:57:34.341Z,4.05
2023-04-02T16:00:16.885Z,4.10
2023-04-02T16:02:55.302Z,4.11
2023-04-02T16:05:28.168Z,4.09
2023-04-02T16:08:04.942Z,4.08
2023-04-02T16:10:41.745Z,4.03
2023-04-02T16:13:14.863Z,4.07
2023-04-02T16:15:45.030Z,3.98
2023-04-02T16:18:18.127Z,4.08
2023-04-02T16:20:47.786Z,4.06
2023-04-02T16:23:18.734Z,4.01
2023-04-02T16:25:56.535Z,4.01
2023-04-02T16:28:25.899Z,3.92
2023-04-02T16:30:57.142Z,4.07
2023-04-02T16:33:34.136Z,4.15
2023-04-02T16:36:09.010Z,4.21
2023-04-02T16:38:44.864Z,4.09
2023-04-02T16:41:18.772Z,4.11
2023-04-02T16:43:51.437Z,4.06
2023-04-02T16:46:38.213Z,4.01
2023-04-02T16:49:13.278Z,4.04
2023-04-02T16:51:43.603Z,4.06
2023-04-02T16:54:15.370Z,4.08
2023-04-02T16:56:50.193Z,4.11
2023-04-02T16:59:22.499Z,4.00
2023-04-02T17:01:55.901Z,4.07
2023-04-02T17:04:50.967Z,4.07
2023-04-02T17:07:28.069Z,4.11
2023-04-02T17:10:04.032Z,4.00
2023-04-02T17:12:35.884Z,3.96
2023-04-02T17:15:17.048Z,3.98
2023-04-02T17:17:54.979Z,3.99
2023-04-02T17:20:25.502Z,3.94
2023-04-02T17:22:54.041Z,3.95
2023-04-02T17:25:26.252Z,3.96
2023-04-02T17:27:56.136Z,3.92
2023-04-02T17:30:37.008Z,3.92
2023-04-02T17:33:07.620Z,3.87
2023-04-02T17:35:41.593Z,3.87
2023-04-02T17:38:15.804Z,3.81
2023-04-02T17:40:51.156Z,3.84
2023-04-02T17:43:27.553Z,3.84
2023-04-02T17:45:57.581Z,3.80
2023-04-02T17:48:31.452Z,3.66
2023-04-02T17:51:04.407Z,3.58
2023-04-02T17:53:41.203Z,3.58
2023-04-02T17:56:18.259Z,3.54
2023-04-02T17:58:55.994Z,3.50
2023-04-02T18:01:27.456Z,3.43
2023-04-02T18:04:01.839Z,3.38
2023-04-02T18:06:33.801Z,3.36
2023-04-02T18:09:10.902Z,3.27
2023-04-02T18:11:47.372Z,3.29
2023-04-02T18:14:26.988Z,3.26
2023-04-02T18:16:59.660Z,3.22
2023-04-02T18:19:34.691Z,3.23
2023-04-02T18:22:09.392Z,3.24
2023-04-02T18:24:50.934Z,3.25
2023-04-02T18:27:28.697Z,3.28
2023-04-02T18:30:00.120Z,3.19
2023-04-02T18:32:37.185Z,3.16
2023-04-02T18:35:09.334Z,3.08
2023-04-02T18:37:40.143Z,3.03
2023-04-02T18:40:20.169Z,3.02
2023-04-02T18:42:55.029Z,3.02
2023-04-02T18:45:25.677Z,2.98
2023-04-02T18:47:58.627Z,2.99
2023-04-02T18:50:31.746Z,2.90
2023-04-02T18:53:00.003Z,2.95
2023-04-02T18:55:29.475Z,2.81
2023-04-02T18:58:02.445Z,2.81
2023-04-02T19:00:32.720Z,2.81
2023-04-02T19:03:03.564Z,2.74
2023-04-02T19:05:38.274Z,2.65
2023-04-02T19:08:11.587Z,2.62
2023-04-02T19:10:40.516Z,2.63
2023-04-02T19:13:15.351Z,2.58
2023-04-02T19:15:49.513Z,2.54
2023-04-02T19:18:24.123Z,2.55
2023-04-02T19:20:58.013Z,2.48
2023-04-02T19:23:32.457Z,2.45
2023-04-02T19:26:02.811Z,2.44
2023-04-02T19:28:35.669Z,2.47
2023-04-02T19:31:16.340Z,2.49
2023-04-02T19:33:49.594Z,2.52
2023-04-02T19:36:27.866Z,2.54
2023-04-02T19:39:04.389Z,2.50
2023-04-02T19:41:35.533Z,2.50
2023-04-02T19:44:05.647Z,2.46
2023-04-02T19:46:33.898Z,2.41
2023-04-02T19:49:06.421Z,2.46
2023-04-02T19:51:34.994Z,2.43
2023-04-02T19:54:03.255Z,2.44
2023-04-02T19:56:31.274Z,2.45
2023-04-02T19:59:02.440Z,2.43
2023-04-02T20:01:37.976Z,2.41
2023-04-02T20:04:06.762Z,2.50
2023-04-02T20:06:34.794Z,2.51
2023-04-02T20:09:03.259Z,2.54
2023-04-02T20:11:31.490Z,2.58
2023-04-02T20:13:59.962Z,2.56
2023-04-02T20:16:28.396Z,2.62
2023-04-02T20:18:58.559Z,2.63
2023-04-02T20:21:26.840Z,2.73
2023-04-02T20:23:55.153Z,2.72
2023-04-02T20:26:23.829Z,2.70
2023-04-02T20:28:52.200Z,2.68
2023-04-02T20:31:20.748Z,2.72
2023-04-02T20:33:49.328Z,2.76
2023-04-02T20:36:18.875Z,2.79
2023-04-02T20:38:47.065Z,2.88
2023-04-02T20:41:16.368Z,2.83
2023-04-02T20:43:44.652Z,2.81
2023-04-02T20:46:13.296Z,2.88
2023-04-02T20:48:41.984Z,2.81
2023-04-02T20:51:10.851Z,2.83
2023-04-02T20:53:40.565Z,2.77
2023-04-02T20:56:09.339Z,2.78
2023-04-02T20:58:38.265Z,2.77
2023-04-02T21:01:08.288Z,2.75
2023-04-02T21:03:37.072Z,2.77
2023-04-02T21:06:05.662Z,2.79
2023-04-02T21:08:33.869Z,2.77
2023-04-02T21:11:07.079Z,2.75
2023-04-02T21:13:36.625Z,2.76
2023-04-02T21:16:05.583Z,2.78
2023-04-02T21:18:34.176Z,2.84
2023-04-02T21:21:03.309Z,2.75
2023-04-02T21:23:32.310Z,2.71
2023-04-02T21:26:02.342Z,2.78
2023-04-02T21:28:34.730Z,2.83
2023-04-02T21:31:04.029Z,2.78
2023-04-02T21:33:32.729Z,2.79
2023-04-02T21:36:06.861Z,2.73
2023-04-02T21:38:35.008Z,2.75
2023-04-02T21:41:13.610Z,2.75
2023-04-02T21:43:44.121Z,2.71
2023-04-02T21:46:12.248Z,2.66
2023-04-02T21:48:40.800Z,2.65
2023-04-02T21:51:12.763Z,2.64
2023-04-02T21:53:41.260Z,2.62
2023-04-02T21:56:10.164Z,2.65
2023-04-02T21:58:38.853Z,2.63
2023-04-02T22:01:11.512Z,2.61
2023-04-02T22:03:48.834Z,2.63
2023-04-02T22:06:19.963Z,2.63
2023-04-02T22:08:48.615Z,2.64
2023-04-02T22:11:17.413Z,2.61
2023-04-02T22:13:46.975Z,2.60
2023-04-02T22:16:18.177Z,2.65
2023-04-02T22:18:47.260Z,2.62
2023-04-02T22:21:16.478Z,2.57
2023-04-02T22:23:45.397Z,2.52
2023-04-02T22:26:14.649Z,2.53
2023-04-02T22:28:42.900Z,2.52
2023-04-02T22:31:12.956Z,2.55
2023-04-02T22:33:42.795Z,2.56
2023-04-02T22:36:11.345Z,2.50
2023-04-02T22:38:39.804Z,2.47
2023-04-02T22:41:09.307Z,2.49
2023-04-02T22:43:37.801Z,2.42
2023-04-02T22:46:06.750Z,2.44
2023-04-02T22:48:36.055Z,2.38
2023-04-02T22:51:05.920Z,2.37
2023-04-02T22:53:35.051Z,2.44
2023-04-02T22:56:03.765Z,2.40
2023-04-02T22:58:31.900Z,2.40
2023-04-02T23:01:04.030Z,2.39
2023-04-02T23:03:32.110Z,2.46
2023-04-02T23:06:01.239Z,2.44
2023-04-02T23:08:30.923Z,2.49
2023-04-02T23:11:02.804Z,2.42
2023-04-02T23:13:31.045Z,2.47
2023-04-02T23:15:59.596Z,2.47
2023-04-02T23:18:27.663Z,2.49
2023-04-02T23:20:55.770Z,2.48
2023-04-02T23:23:23.702Z,2.50
2023-04-02T23:26:03.180Z,2.46
2023-04-02T23:28:31.435Z,2.41
2023-04-02T23:31:00.951Z,2.41
2023-04-02T23:33:29.430Z,2.41
2023-04-02T23:35:58.520Z,2.46
2023-04-02T23:38:27.425Z,2.40
2023-04-02T23:40:57.372Z,2.39
2023-04-02T23:43:25.830Z,2.41
2023-04-02T23:45:55.404Z,2.39
2023-04-02T23:48:23.814Z,2.41
2023-04-02T23:50:51.561Z,2.38
2023-04-02T23:53:21.256Z,2.38
2023-04-02T23:55:49.630Z,2.38
2023-04-02T23:58:19.534Z,2.42
